createdAt,value
2019-04-19T00:00:40.343Z,94.60
2019-04-19T00:03:12.939Z,94.40
2019-04-19T00:05:44.613Z,94.60
2019-04-19T00:08:31.088Z,94.60
2019-04-19T00:10:52.067Z,94.70
2019-04-19T00:13:15.615Z,94.80
2019-04-19T00:15:45.654Z,94.90
2019-04-19T00:18:19.665Z,94.90
2019-04-19T00:21:07.880Z,95.10
2019-04-19T00:23:27.931Z,95.20
2019-04-19T00:25:49.671Z,95.40
2019-04-19T00:28:25.794Z,95.30
2019-04-19T00:30:59.151Z,95.40
2019-04-19T00:33:30.573Z,95.50
2019-04-19T00:35:51.683Z,95.60
2019-04-19T00:38:40.627Z,95.60
2019-04-19T00:41:14.492Z,96.10
2019-04-19T00:43:59.104Z,96.10
2019-04-19T00:46:33.771Z,96.10
2019-04-19T00:49:02.830Z,96.30
2019-04-19T00:51:38.577Z,96.30
2019-04-19T00:54:00.111Z,96.50
2019-04-19T00:56:33.668Z,96.60
2019-04-19T00:58:58.300Z,96.40
2019-04-19T01:01:26.002Z,96.60
2019-04-19T01:03:54.383Z,96.70
2019-04-19T01:06:32.798Z,96.70
2019-04-19T01:09:07.519Z,96.50
2019-04-19T01:11:35.993Z,96.80
2019-04-19T01:14:11.600Z,96.80
2019-04-19T01:16:44.448Z,96.70
2019-04-19T01:19:04.228Z,97.10
2019-04-19T01:21:28.149Z,97.40
2019-04-19T01:24:00.440Z,97.20
2019-04-19T01:26:30.069Z,97.40
2019-04-19T01:29:04.179Z,97.40
2019-04-19T01:31:31.005Z,97.60
2019-04-19T01:34:07.502Z,97.70
2019-04-19T01:36:33.875Z,97.50
2019-04-19T01:39:18.771Z,97.60
2019-04-19T01:41:45.408Z,97.40
2019-04-19T01:44:35.728Z,97.60
2019-04-19T01:47:07.604Z,97.50
2019-04-19T01:49:52.934Z,97.40
2019-04-19T01:52:42.293Z,97.60
2019-04-19T01:54:56.499Z,97.50
2019-04-19T01:57:15.978Z,97.90
2019-04-19T01:59:50.810Z,97.90
2019-04-19T02:02:20.283Z,97.90
2019-04-19T02:04:47.680Z,97.90
2019-04-19T02:07:22.322Z,97.90
2019-04-19T02:10:05.341Z,98.10
2019-04-19T02:12:34.635Z,98.20
2019-04-19T02:14:58.558Z,98.10
2019-04-19T02:17:21.188Z,98.30
2019-04-19T02:19:57.172Z,98.30
2019-04-19T02:22:26.376Z,98.40
2019-04-19T02:24:54.284Z,98.30
2019-04-19T02:27:23.115Z,98.30
2019-04-19T02:29:59.477Z,98.60
2019-04-19T02:32:43.748Z,98.60
2019-04-19T02:35:18.700Z,99.00
2019-04-19T02:37:51.459Z,98.60
2019-04-19T02:40:38.928Z,98.60
2019-04-19T02:42:50.840Z,98.70
2019-04-19T02:47:57.835Z,99.00
2019-04-19T02:50:35.874Z,99.00
2019-04-19T02:52:58.484Z,98.90
2019-04-19T02:55:20.209Z,99.00
2019-04-19T02:58:06.637Z,99.00
2019-04-19T03:01:03.597Z,99.00
2019-04-19T03:03:27.544Z,99.00
2019-04-19T03:05:58.652Z,99.10
2019-04-19T03:08:08.333Z,99.00
2019-04-19T03:10:53.494Z,99.10
2019-04-19T03:13:21.655Z,99.00
2019-04-19T03:16:10.373Z,99.20
2019-04-19T03:18:30.764Z,99.10
2019-04-19T03:20:50.755Z,99.30
2019-04-19T03:23:23.436Z,99.30
2019-04-19T03:25:53.079Z,99.30
2019-04-19T03:28:22.187Z,99.40
2019-04-19T03:31:13.971Z,99.60
2019-04-19T03:38:37.611Z,99.20
2019-04-19T03:41:07.761Z,99.30
2019-04-19T03:43:41.148Z,99.70
2019-04-19T03:46:12.579Z,99.80
2019-04-19T03:48:46.350Z,99.70
2019-04-19T03:51:29.058Z,99.40
2019-04-19T03:58:27.495Z,99.90
2019-04-19T04:00:58.078Z,99.90
2019-04-19T04:03:32.918Z,99.90
2019-04-19T04:05:58.340Z,99.90
2019-04-19T04:08:32.932Z,99.80
2019-04-19T04:11:22.971Z,99.70
2019-04-19T04:14:07.400Z,99.60
2019-04-19T04:16:38.740Z,99.90
2019-04-19T04:19:03.697Z,99.90
2019-04-19T04:21:40.058Z,99.90
2019-04-19T04:24:14.431Z,99.90
2019-04-19T04:26:45.630Z,99.90
2019-04-19T04:29:15.798Z,99.90
2019-04-19T04:31:48.698Z,99.90
2019-04-19T04:34:24.173Z,99.90
2019-04-19T04:36:54.714Z,99.90
2019-04-19T04:39:07.777Z,99.90
2019-04-19T04:41:37.577Z,99.90
2019-04-19T04:44:23.385Z,99.90
2019-04-19T04:47:04.674Z,99.90
2019-04-19T04:50:01.904Z,99.90
2019-04-19T04:52:36.653Z,99.90
2019-04-19T04:55:09.346Z,99.90
2019-04-19T04:57:48.897Z,99.90
2019-04-19T05:00:09.773Z,99.90
2019-04-19T05:02:58.714Z,99.90
2019-04-19T05:05:33.502Z,99.90
2019-04-19T05:08:07.215Z,99.90
2019-04-19T05:10:30.731Z,99.90
2019-04-19T05:13:33.509Z,99.90
2019-04-19T05:15:48.181Z,99.90
2019-04-19T05:18:24.888Z,99.90
2019-04-19T05:20:48.045Z,99.90
2019-04-19T05:23:22.717Z,99.90
2019-04-19T05:25:56.405Z,99.90
2019-04-19T05:28:23.733Z,99.90
2019-04-19T05:30:46.858Z,99.90
2019-04-19T05:33:18.145Z,99.90
2019-04-19T05:35:57.283Z,99.90
2019-04-19T05:38:55.988Z,99.90
2019-04-19T05:41:33.201Z,99.90
2019-04-19T05:44:43.361Z,99.90
2019-04-19T05:47:05.381Z,99.90
2019-04-19T05:49:33.792Z,99.90
2019-04-19T05:52:07.936Z,99.90
2019-04-19T05:54:19.236Z,99.90
2019-04-19T05:56:51.729Z,99.90
2019-04-19T05:59:31.893Z,99.90
2019-04-19T06:02:02.157Z,99.90
2019-04-19T06:04:58.202Z,99.90
2019-04-19T06:07:24.492Z,99.90
2019-04-19T06:09:32.993Z,99.90
2019-04-19T06:12:11.333Z,99.90
2019-04-19T06:14:58.154Z,99.90
2019-04-19T06:17:39.734Z,99.90
2019-04-19T06:20:13.650Z,99.90
2019-04-19T06:22:47.750Z,99.90
2019-04-19T06:25:12.473Z,99.90
2019-04-19T06:28:05.243Z,99.90
2019-04-19T06:30:24.644Z,99.90
2019-04-19T06:32:52.061Z,99.90
2019-04-19T06:35:11.594Z,99.90
2019-04-19T06:37:31.720Z,99.90
2019-04-19T06:40:09.812Z,99.90
2019-04-19T06:42:40.656Z,99.90
2019-04-19T06:45:19.797Z,99.90
2019-04-19T06:47:38.910Z,99.90
2019-04-19T06:50:05.126Z,99.90
2019-04-19T06:52:36.341Z,99.90
2019-04-19T06:55:14.049Z,99.90
2019-04-19T06:57:51.526Z,99.90
2019-04-19T07:00:22.711Z,99.90
2019-04-19T07:02:41.351Z,99.90
2019-04-19T07:05:23.246Z,99.90
2019-04-19T07:08:08.874Z,99.90
2019-04-19T07:13:02.946Z,99.90
2019-04-19T07:15:44.283Z,99.90
2019-04-19T07:17:59.542Z,99.90
2019-04-19T07:20:32.987Z,99.90
2019-04-19T07:23:02.782Z,99.90
2019-04-19T07:25:42.730Z,99.90
2019-04-19T07:27:59.794Z,99.90
2019-04-19T07:30:20.327Z,99.90
2019-04-19T07:32:53.977Z,99.90
2019-04-19T07:35:40.098Z,99.90
2019-04-19T07:38:18.995Z,99.90
2019-04-19T07:40:45.585Z,99.90
2019-04-19T07:43:11.857Z,99.90
2019-04-19T07:45:45.833Z,99.90
2019-04-19T07:48:10.037Z,99.90
2019-04-19T07:50:44.656Z,99.90
2019-04-19T07:53:04.277Z,99.90
2019-04-19T07:55:43.267Z,99.90
2019-04-19T07:58:38.243Z,99.90
2019-04-19T08:01:00.741Z,99.90
2019-04-19T08:08:46.993Z,99.90
2019-04-19T08:28:24.677Z,99.90
2019-04-19T08:30:48.683Z,99.90
2019-04-19T08:33:14.678Z,99.90
2019-04-19T08:35:48.069Z,99.90
2019-04-19T08:38:20.663Z,99.90
2019-04-19T08:41:02.318Z,99.90
2019-04-19T08:43:31.924Z,99.90
2019-04-19T08:46:09.518Z,99.90
2019-04-19T08:49:07.153Z,99.90
2019-04-19T08:51:48.748Z,99.90
2019-04-19T08:54:37.028Z,99.90
2019-04-19T08:56:57.785Z,99.70
2019-04-19T08:59:43.967Z,99.90
2019-04-19T09:02:11.056Z,99.90
2019-04-19T09:04:40.640Z,99.90
2019-04-19T09:07:34.121Z,99.50
2019-04-19T09:09:40.639Z,99.90
2019-04-19T09:12:13.227Z,98.90
2019-04-19T09:14:45.741Z,99.00
2019-04-19T09:17:28.594Z,99.30
2019-04-19T09:20:00.905Z,99.30
2019-04-19T09:22:17.782Z,99.10
2019-04-19T09:24:39.719Z,99.30
2019-04-19T09:27:11.230Z,99.40
2019-04-19T09:29:53.863Z,99.20
2019-04-19T09:32:07.773Z,99.20
2019-04-19T09:34:30.383Z,99.20
2019-04-19T09:37:11.201Z,99.30
2019-04-19T09:39:41.359Z,99.40
2019-04-19T09:42:12.836Z,99.20
2019-04-19T09:44:40.199Z,99.30
2019-04-19T09:47:04.380Z,99.10
2019-04-19T09:49:47.928Z,99.20
2019-04-19T09:52:30.358Z,99.20
2019-04-19T09:55:01.985Z,99.20
2019-04-19T09:57:26.660Z,99.10
2019-04-19T09:59:39.118Z,99.20
2019-04-19T10:02:10.008Z,99.40
2019-04-19T10:04:39.931Z,99.20
2019-04-19T10:07:09.104Z,99.30
2019-04-19T10:09:38.410Z,99.40
2019-04-19T10:12:07.508Z,99.40
2019-04-19T10:14:37.447Z,98.70
2019-04-19T10:17:16.626Z,99.30
2019-04-19T10:19:46.604Z,99.10
2019-04-19T10:22:16.644Z,98.90
2019-04-19T10:24:47.651Z,99.50
2019-04-19T10:27:24.894Z,97.90
2019-04-19T10:29:55.477Z,97.90
2019-04-19T10:32:32.975Z,99.00
2019-04-19T10:35:02.346Z,99.00
2019-04-19T10:37:31.668Z,97.80
2019-04-19T10:40:02.072Z,98.40
2019-04-19T10:42:31.517Z,97.50
2019-04-19T10:45:00.631Z,97.00
2019-04-19T10:47:29.582Z,97.20
2019-04-19T10:50:14.210Z,96.90
2019-04-19T10:52:29.436Z,97.90
2019-04-19T10:54:59.395Z,98.00
2019-04-19T10:57:29.706Z,95.10
2019-04-19T11:00:03.009Z,95.00
2019-04-19T11:02:34.467Z,95.90
2019-04-19T11:05:05.439Z,96.00
2019-04-19T11:07:34.948Z,95.30
2019-04-19T11:10:07.480Z,95.80
2019-04-19T11:12:36.585Z,94.90
2019-04-19T11:15:06.682Z,95.20
2019-04-19T11:17:35.917Z,94.50
2019-04-19T11:20:19.910Z,95.30
2019-04-19T11:22:37.560Z,93.70
2019-04-19T11:25:08.117Z,93.90
2019-04-19T11:27:37.389Z,93.60
2019-04-19T11:30:21.184Z,94.80
2019-04-19T11:32:50.552Z,91.80
2019-04-19T11:35:21.447Z,92.00
2019-04-19T11:37:51.046Z,93.70
2019-04-19T11:40:21.350Z,92.00
2019-04-19T11:42:51.153Z,91.90
2019-04-19T11:45:21.817Z,93.50
2019-04-19T11:47:51.326Z,94.00
2019-04-19T11:50:21.960Z,92.60
2019-04-19T11:53:22.671Z,90.20
2019-04-19T11:56:12.077Z,90.50
2019-04-19T11:58:42.551Z,89.50
2019-04-19T12:01:16.248Z,90.40
2019-04-19T12:03:45.826Z,88.80
2019-04-19T12:06:16.173Z,87.90
2019-04-19T12:09:08.807Z,90.10
2019-04-19T12:11:40.151Z,91.20
2019-04-19T12:14:14.155Z,89.10
2019-04-19T12:16:44.677Z,87.20
2019-04-19T12:19:16.559Z,88.90
2019-04-19T12:21:53.686Z,88.90
2019-04-19T12:24:22.774Z,89.80
2019-04-19T12:26:53.604Z,85.80
2019-04-19T12:29:30.215Z,86.70
2019-04-19T12:31:54.497Z,88.20
2019-04-19T12:34:50.847Z,84.40
2019-04-19T12:37:20.121Z,87.60
2019-04-19T12:39:49.043Z,83.90
2019-04-19T12:42:31.826Z,85.00
2019-04-19T12:45:02.067Z,84.90
2019-04-19T12:47:53.174Z,83.60
2019-04-19T12:50:22.287Z,83.90
2019-04-19T12:52:51.817Z,81.80
2019-04-19T12:58:19.766Z,80.50
2019-04-19T13:01:17.743Z,79.50
2019-04-19T13:04:04.378Z,81.50
2019-04-19T13:06:52.482Z,77.20
2019-04-19T13:09:26.889Z,80.00
2019-04-19T13:12:05.173Z,78.70
2019-04-19T13:14:35.506Z,79.80
2019-04-19T13:17:04.666Z,79.20
2019-04-19T13:19:33.729Z,77.60
2019-04-19T13:22:02.762Z,75.80
2019-04-19T13:24:32.196Z,80.60
2019-04-19T13:27:21.201Z,75.70
2019-04-19T13:30:12.208Z,74.30
2019-04-19T13:32:21.848Z,79.90
2019-04-19T13:34:51.556Z,77.80
2019-04-19T13:37:45.786Z,74.10
2019-04-19T13:40:26.268Z,77.00
2019-04-19T13:42:58.286Z,73.00
2019-04-19T13:45:29.865Z,74.10
2019-04-19T13:47:56.629Z,71.90
2019-04-19T13:50:31.799Z,72.80
2019-04-19T13:52:57.015Z,72.10
2019-04-19T13:55:26.551Z,72.40
2019-04-19T13:57:55.740Z,77.60
2019-04-19T14:00:40.610Z,72.40
2019-04-19T14:03:09.877Z,71.90
2019-04-19T14:05:39.022Z,73.60
2019-04-19T14:08:09.064Z,73.60
2019-04-19T14:10:39.244Z,72.40
2019-04-19T14:13:09.393Z,72.20
2019-04-19T14:15:40.791Z,72.60
2019-04-19T14:18:10.827Z,73.10
2019-04-19T14:20:43.996Z,72.30
2019-04-19T14:23:10.834Z,73.30
2019-04-19T14:25:41.184Z,71.80
2019-04-19T14:28:11.377Z,70.70
2019-04-19T14:30:41.474Z,71.50
2019-04-19T14:33:10.588Z,73.00
2019-04-19T14:35:39.860Z,70.90
2019-04-19T14:38:09.501Z,73.50
2019-04-19T14:40:39.814Z,74.20
2019-04-19T14:43:08.918Z,74.40
2019-04-19T14:45:38.153Z,72.70
2019-04-19T14:48:07.349Z,77.60
2019-04-19T14:50:48.555Z,75.70
2019-04-19T14:53:08.056Z,74.90
2019-04-19T14:55:38.098Z,69.30
2019-04-19T14:58:07.433Z,70.10
2019-04-19T15:00:36.884Z,70.10
2019-04-19T15:03:12.744Z,72.50
2019-04-19T15:05:43.709Z,65.40
2019-04-19T15:08:12.900Z,71.10
2019-04-19T15:10:41.870Z,70.60
2019-04-19T15:13:10.971Z,70.20
2019-04-19T15:15:41.371Z,67.60
2019-04-19T15:18:11.010Z,68.20
2019-04-19T15:20:41.326Z,67.90
2019-04-19T15:23:10.899Z,69.20
2019-04-19T15:25:40.378Z,69.00
2019-04-19T15:28:10.918Z,72.40
2019-04-19T15:30:42.278Z,71.60
2019-04-19T15:33:10.645Z,66.70
2019-04-19T15:35:39.673Z,64.70
2019-04-19T15:38:09.841Z,63.70
2019-04-19T15:40:38.902Z,71.60
2019-04-19T15:43:08.813Z,73.00
2019-04-19T15:45:38.962Z,69.10
2019-04-19T15:48:08.934Z,69.40
2019-04-19T15:50:38.189Z,73.70
2019-04-19T15:53:09.169Z,73.40
2019-04-19T15:55:38.014Z,69.70
2019-04-19T15:58:08.467Z,68.50
2019-04-19T16:00:46.464Z,69.60
2019-04-19T16:03:42.055Z,67.50
2019-04-19T16:06:18.610Z,67.90
2019-04-19T16:09:06.702Z,68.50
2019-04-19T16:11:49.081Z,67.80
2019-04-19T16:14:19.883Z,66.20
2019-04-19T16:16:49.058Z,71.80
2019-04-19T16:19:18.528Z,67.00
2019-04-19T16:21:52.946Z,67.70
2019-04-19T16:24:18.867Z,72.30
2019-04-19T16:26:48.929Z,70.00
2019-04-19T16:29:28.807Z,68.90
2019-04-19T16:31:48.881Z,69.00
2019-04-19T16:34:18.335Z,70.60
2019-04-19T16:36:47.807Z,73.40
2019-04-19T16:39:17.181Z,68.70
2019-04-19T16:41:47.365Z,70.80
2019-04-19T16:44:16.338Z,67.90
2019-04-19T16:46:45.454Z,67.20
2019-04-19T16:49:14.487Z,67.00
2019-04-19T16:51:48.776Z,68.10
2019-04-19T16:54:14.265Z,68.60
2019-04-19T16:56:43.990Z,72.30
2019-04-19T16:59:14.253Z,71.60
2019-04-19T17:01:43.325Z,71.00
2019-04-19T17:04:13.530Z,69.90
2019-04-19T17:06:42.722Z,73.00
2019-04-19T17:09:13.135Z,71.10
2019-04-19T17:11:42.231Z,72.60
2019-04-19T17:14:12.401Z,72.80
2019-04-19T17:17:07.125Z,73.00
2019-04-19T17:19:44.527Z,71.80
2019-04-19T17:22:18.850Z,72.10
2019-04-19T17:24:45.148Z,72.40
2019-04-19T17:27:14.265Z,71.10
2019-04-19T17:29:43.350Z,73.90
2019-04-19T17:32:12.527Z,72.90
2019-04-19T17:34:42.458Z,69.60
2019-04-19T17:37:11.931Z,68.80
2019-04-19T17:39:40.979Z,68.40
2019-04-19T17:42:10.564Z,68.00
2019-04-19T17:44:39.795Z,70.10
2019-04-19T17:47:11.594Z,66.60
2019-04-19T17:49:40.643Z,70.20
2019-04-19T17:52:19.012Z,73.50
2019-04-19T17:54:56.234Z,70.20
2019-04-19T17:57:11.662Z,71.70
2019-04-19T17:59:42.471Z,72.40
2019-04-19T18:02:12.856Z,68.20
2019-04-19T18:04:42.195Z,70.20
2019-04-19T18:07:11.219Z,71.10
2019-04-19T18:09:45.921Z,71.10
2019-04-19T18:12:11.550Z,71.40
2019-04-19T18:14:41.413Z,71.00
2019-04-19T18:17:10.718Z,73.70
2019-04-19T18:19:41.963Z,71.80
2019-04-19T18:22:18.837Z,75.30
2019-04-19T18:24:46.874Z,73.10
2019-04-19T18:27:17.016Z,74.20
2019-04-19T18:29:42.419Z,75.90
2019-04-19T18:32:28.015Z,74.70
2019-04-19T18:34:57.892Z,76.30
2019-04-19T18:37:32.067Z,74.00
2019-04-19T18:39:58.342Z,74.60
2019-04-19T18:42:28.122Z,77.50
2019-04-19T18:45:00.777Z,76.80
2019-04-19T18:47:27.535Z,76.30
2019-04-19T18:49:57.382Z,77.50
2019-04-19T18:52:37.098Z,77.00
2019-04-19T18:55:05.102Z,76.60
2019-04-19T18:57:28.593Z,78.10
2019-04-19T19:00:00.704Z,77.10
2019-04-19T19:02:30.129Z,77.20
2019-04-19T19:05:05.024Z,77.00
2019-04-19T19:07:30.998Z,77.40
2019-04-19T19:10:03.997Z,77.90
2019-04-19T19:12:34.154Z,78.80
2019-04-19T19:15:03.032Z,80.50
2019-04-19T19:17:32.107Z,78.80
2019-04-19T19:20:11.422Z,79.20
2019-04-19T19:22:51.123Z,80.00
2019-04-19T19:25:19.725Z,79.60
2019-04-19T19:27:35.301Z,79.40
2019-04-19T19:30:05.255Z,81.80
2019-04-19T19:32:35.670Z,81.00
2019-04-19T19:35:12.139Z,82.30
2019-04-19T19:37:38.428Z,80.50
2019-04-19T19:40:23.377Z,82.90
2019-04-19T19:43:00.055Z,83.50
2019-04-19T19:45:25.354Z,82.60
2019-04-19T19:50:58.856Z,83.10
2019-04-19T19:53:37.210Z,83.40
2019-04-19T19:56:04.021Z,82.60
2019-04-19T19:58:18.419Z,83.40
2019-04-19T20:00:55.529Z,83.30
2019-04-19T20:03:16.393Z,84.60
2019-04-19T20:05:40.927Z,84.60
2019-04-19T20:08:09.419Z,84.90
2019-04-19T20:10:43.996Z,84.60
2019-04-19T20:13:15.665Z,85.40
2019-04-19T20:15:44.603Z,85.00
2019-04-19T20:18:13.621Z,86.00
2019-04-19T20:20:44.407Z,85.10
2019-04-19T20:23:22.611Z,85.30
2019-04-19T20:25:54.245Z,85.50
2019-04-19T20:28:22.741Z,84.90
2019-04-19T20:30:48.999Z,85.50
2019-04-19T20:33:17.925Z,85.80
2019-04-19T20:35:52.172Z,85.80
2019-04-19T20:38:21.709Z,85.70
2019-04-19T20:40:54.592Z,87.40
2019-04-19T20:43:35.077Z,87.70
2019-04-19T20:45:54.096Z,87.80
2019-04-19T20:48:24.712Z,87.90
2019-04-19T20:51:04.812Z,87.80
2019-04-19T20:53:35.878Z,87.50
2019-04-19T20:58:38.771Z,87.90
2019-04-19T21:01:03.074Z,89.50
2019-04-19T21:03:35.946Z,88.20
2019-04-19T21:06:03.861Z,88.30
2019-04-19T21:08:38.815Z,88.60
2019-04-19T21:11:07.333Z,88.90
2019-04-19T21:13:39.084Z,88.50
2019-04-19T21:16:06.584Z,88.30
2019-04-19T21:18:35.960Z,89.10
2019-04-19T21:21:08.984Z,88.70
2019-04-19T21:23:36.256Z,88.50
2019-04-19T21:26:14.620Z,89.30
2019-04-19T21:28:42.845Z,89.30
2019-04-19T21:31:09.440Z,88.50
2019-04-19T21:33:40.658Z,88.80
2019-04-19T21:36:11.643Z,88.20
2019-04-19T21:38:40.193Z,89.40
2019-04-19T21:41:18.834Z,89.50
2019-04-19T21:43:41.922Z,89.50
2019-04-19T21:46:13.436Z,88.80
2019-04-19T21:48:44.280Z,89.60
2019-04-19T21:51:18.461Z,89.00
2019-04-19T21:53:46.250Z,89.60
2019-04-19T21:56:16.648Z,89.50
2019-04-19T21:58:48.406Z,89.50
2019-04-19T22:01:19.011Z,89.00
2019-04-19T22:03:54.507Z,90.00
2019-04-19T22:06:24.098Z,89.80
2019-04-19T22:08:50.325Z,89.90
2019-04-19T22:11:20.566Z,89.80
2019-04-19T22:13:52.486Z,90.00
2019-04-19T22:16:27.990Z,90.10
2019-04-19T22:18:54.045Z,90.40
2019-04-19T22:21:22.815Z,90.60
2019-04-19T22:23:54.592Z,90.50
2019-04-19T22:26:30.071Z,90.60
2019-04-19T22:28:53.787Z,90.60
2019-04-19T22:31:27.582Z,90.90
2019-04-19T22:33:54.445Z,90.80
2019-04-19T22:36:23.688Z,90.90
2019-04-19T22:38:57.068Z,91.10
2019-04-19T22:41:26.707Z,91.10
2019-04-19T22:43:54.564Z,91.30
2019-04-19T22:46:23.681Z,91.50
2019-04-19T22:48:57.974Z,91.50
2019-04-19T22:51:24.485Z,91.50
2019-04-19T22:53:54.579Z,91.50
2019-04-19T22:56:32.647Z,91.70
2019-04-19T22:58:58.985Z,91.80
2019-04-19T23:01:41.205Z,91.80
2019-04-19T23:04:15.421Z,91.90
2019-04-19T23:06:40.640Z,92.00
2019-04-19T23:09:13.033Z,92.00
2019-04-19T23:11:40.125Z,92.00
2019-04-19T23:14:11.535Z,92.30
2019-04-19T23:16:48.714Z,92.30
2019-04-19T23:19:14.225Z,92.50
2019-04-19T23:21:47.730Z,92.40
2019-04-19T23:24:15.236Z,92.70
2019-04-19T23:27:00.572Z,92.90
2019-04-19T23:29:19.965Z,92.70
2019-04-19T23:31:49.069Z,92.80
2019-04-19T23:34:14.914Z,93.00
2019-04-19T23:36:44.988Z,93.20
2019-04-19T23:39:15.543Z,93.30
2019-04-19T23:41:44.787Z,93.20
2019-04-19T23:44:18.492Z,93.30
2019-04-19T23:46:45.516Z,93.80
2019-04-19T23:49:17.578Z,93.40
2019-04-19T23:51:45.276Z,93.70
2019-04-19T23:54:20.583Z,93.70
2019-04-19T23:56:55.084Z,94.00
2019-04-19T23:59:19.007Z,94.10
